Tiempo atmosférico en la estación meteorológica de Cartaya, Huelva (15 m.)

Fecha
DESCASC
Temp. máxima en grados centígrados (hora)
DESCASC
Temp. mínima en grados centígrados (hora)
DESCASC
Temp. media en grados centígrados
DESCASC
Racha de viento máxima en m/sg (hora)
DESCASC
Velocidad máxima media en intervalos de 10 minutos(hora)
DESCASC
Precipitaciones diarias en mm
DESCASC
Precipitaciones de 00:00 a 06:00 en mm
DESCASC
Precipitaciones de 06:00 a 12:00 en mm
DESCASC
Precipitaciones de 12:00 a 18:00 en mm
DESCASC
Precipitaciones de 18:00 a 24:00 en mm
DESCASC
17-08-2017 30.1 (11:20) 20.4 (07:50) 25.3 7.5 (05:30) 4.72 (12:50) 0 0 0 0 0
16-08-2017 37.2 (15:30) 17.9 (08:10) 27.6 9.17 (02:50) 6.11 (15:50) 0 0 0 0 0
15-08-2017 30.5 (14:10) 17.9 (00:00) 24.2 9.72 (19:20) 6.11 (17:30) 0 0 0 0 0
14-08-2017 29.8 (16:20) 17.2 (07:50) 23.5 8.33 (18:20) 5.28 (18:50) 0 0 0 0 0
13-08-2017 32.7 (13:00) 17.2 (00:00) 25 8.06 (19:50) 5 (19:50) 0 0 0 0 0
12-08-2017 30.7 (12:30) 16.3 (00:00) 23.5 6.39 (14:50) 4.44 (13:30) 0 0 0 0 0
11-08-2017 31.5 (12:40) 18 (00:00) 24.8 8.89 (19:10) 5.56 (19:10) 0 0 0 0 0
10-08-2017 30.3 (12:30) 15.4 (00:00) 22.8 8.89 (11:30) 4.72 (11:40) 0 0 0 0 0
09-08-2017 30.5 (14:40) 15.5 (00:00) 23 10 (14:10) 6.11 (15:20) 0 0 0 0 0
08-08-2017 34.7 (16:40) 18.3 (00:00) 26.5 10.28 (18:00) 6.11 (17:30) 0 0 0 0 0
07-08-2017 34.3 (13:10) 20.3 (00:00) 27.3 10 (15:00) 6.67 (15:00) 0 0 0 0 0
06-08-2017 38.4 (14:30) 19 (00:00) 28.7 10.83 (17:20) 6.67 (18:00) 0 0 0 0 0
05-08-2017 39 (14:20) 23 (00:00) 31 10 (07:40) 6.11 (16:50) 0 0 0 0 0
04-08-2017 37.9 (14:00) 23.3 (00:00) 30.6 9.72 (17:10) 6.39 (17:10) 0 0 0 0 0
03-08-2017 37.4 (15:00) 19.6 (00:00) 28.5 10.28 (16:30) 6.39 (16:30) 0 0 0 0 0
02-08-2017 -- (--) -- (--) -- -- (--) -- (--) -- 0 -- 0 0
01-08-2017 33.3 (16:10) 19.6 (00:00) 26.4 10.56 (22:40) 6.39 (16:30) 0 0 0 0 0
31-07-2017 32.9 (14:30) 18.8 (00:00) 25.9 11.11 (16:30) 7.22 (16:40) 0 0 0 0 0
30-07-2017 38.8 (14:50) 21.5 (00:00) 30.1 10 (23:59) 6.67 (15:50) 0 0 0 0 0
29-07-2017 32.8 (11:40) 19.6 (00:00) 26.2 8.33 (20:10) 5.28 (19:00) 0 0 0 0 0
28-07-2017 35.2 (14:00) 18.6 (00:00) 26.9 8.89 (14:20) 6.11 (14:30) 0 0 0 0 0
27-07-2017 30.3 (14:10) 14.8 (00:00) 22.5 7.5 (16:30) 5.28 (16:30) 0 0 0 0 0
26-07-2017 26.2 (14:00) 17.3 (00:00) 21.8 5.83 (13:20) 3.61 (20:00) 0 0 0 0 0
25-07-2017 33.7 (12:50) 19.2 (00:00) 26.5 8.61 (01:40) 5.83 (14:50) 0 0 0 0 0
24-07-2017 36.7 (15:50) 20.5 (00:00) 28.6 11.39 (17:30) 6.67 (18:10) 0 0 0 0 0
23-07-2017 31.6 (13:30) 17.5 (00:00) 24.6 9.72 (18:50) 6.39 (17:00) 0 0 0 0 0
22-07-2017 28.4 (13:20) 16 (00:00) 22.2 10.28 (14:50) 6.67 (14:40) 0 0 0 0 0
21-07-2017 24.9 (12:50) 14.6 (00:00) 19.8 11.11 (14:50) 6.11 (16:20) 0 0 0 0 0
20-07-2017 29 (14:50) 17.4 (00:00) 23.2 10.83 (15:50) 6.67 (17:10) 0 0 0 0 0
19-07-2017 29.2 (13:00) 18.5 (00:00) 23.9 9.72 (16:40) 6.39 (15:30) 0 0 0 0 0

Gráficas

Temp. máximas Temp. mínimas Temp. medias Precipitaciones Rachas de viento máximas Velocidades máximas media en intervalos de 10 minutos

Datos horarios

Fecha y hora oficial Temperatura (ºC) Velocidad del viento (km/h) Dirección del viento Racha (km/h) Dirección de racha Precipitación (mm) Presión (hPa) Tendencia (hPa) Humedad (%)
2017-08-17 23:00:00 23.2 5 Oeste 15 Noroeste 0 -- -- 87
2017-08-17 22:00:00 23.5 5 Oeste 13 Oeste 0 -- -- 84
2017-08-17 21:00:00 24.8 8 Oeste 21 Noroeste 0 -- -- 77
2017-08-17 20:00:00 26 14 Noroeste 23 Oeste 0 -- -- 75
2017-08-17 19:00:00 26.7 15 Oeste 22 Oeste 0 -- -- 75
2017-08-17 18:00:00 27.6 13 Oeste 22 Oeste 0 -- -- 72
2017-08-17 17:00:00 27.9 10 Oeste 18 Oeste 0 -- -- 71
2017-08-17 16:00:00 27.6 10 Sudoeste 18 Oeste 0 -- -- 70
2017-08-17 15:00:00 27.1 10 Sudoeste 19 Sudoeste 0 -- -- 68
2017-08-17 14:00:00 26.6 10 Sudoeste 25 Sur 0 -- -- 73
2017-08-17 13:00:00 28.1 12 Sur 24 Sudoeste 0 -- -- 67
2017-08-17 12:00:00 29.9 8 Sudoeste 13 Sur 0 -- -- 46
2017-08-17 11:00:00 28.6 6 Nordeste 18 Nordeste 0 -- -- 43
2017-08-17 10:00:00 25 9 Nordeste 19 Norte 0 -- -- 52
2017-08-17 09:00:00 21.8 11 Norte 21 Norte 0 -- -- 59
2017-08-17 08:00:00 20.4 10 Nordeste 19 Norte 0 -- -- 63
2017-08-17 07:00:00 21 9 Norte 21 Nordeste 0 -- -- 61
2017-08-17 06:00:00 21.8 13 Norte 27 Norte 0 -- -- 58
2017-08-17 05:00:00 22.9 12 Norte 22 Norte 0 -- -- 56
2017-08-17 04:00:00 24.1 11 Norte 21 Norte 0 -- -- 54
2017-08-17 03:00:00 25.3 9 Norte 20 Norte 0 -- -- 50
2017-08-17 02:00:00 26.3 9 Norte 21 Norte 0 -- -- 46
2017-08-17 01:00:00 27.4 10 Norte 22 Norte 0 -- -- 43
2017-08-17 00:00:00 27.2 9 Norte 17 Norte 0 -- -- 43
2017-08-16 23:00:00 23.5 7 Norte 12 Noroeste 0 -- -- 62
2017-08-16 22:00:00 26.4 4 Noroeste 21 Noroeste 0 -- -- 65
2017-08-16 21:00:00 29.3 13 Noroeste 27 Noroeste 0 -- -- 41
2017-08-16 20:00:00 29.9 17 Noroeste 31 Noroeste 0 -- -- 42
2017-08-16 19:00:00 30 17 Noroeste 33 Oeste 0 -- -- 45
2017-08-16 18:00:00 29 18 Oeste 33 Oeste 0 -- -- 51
2017-08-16 17:00:00 29.3 19 Oeste 32 Oeste 0 -- -- 51
2017-08-16 16:00:00 30 19 Oeste 33 Oeste 0 -- -- 49
2017-08-16 15:00:00 36.7 9 Norte 26 Noroeste 0 -- -- 20
2017-08-16 14:00:00 34.6 12 Norte 24 Norte 0 -- -- 24
2017-08-16 13:00:00 32.8 10 Norte 22 Noroeste 0 -- -- 29
2017-08-16 12:00:00 29.9 10 Norte 22 Norte 0 -- -- 36
2017-08-16 11:00:00 26 13 Norte 28 Norte 0 -- -- 44
2017-08-16 10:00:00 23.3 13 Norte 26 Norte 0 -- -- 51
2017-08-16 09:00:00 20 8 Norte 17 Nordeste 0 -- -- 62
2017-08-16 08:00:00 18.2 4 Nordeste 9 Nordeste 0 -- -- 66
2017-08-16 07:00:00 20.7 4 Norte 18 Norte 0 -- -- 59
2017-08-16 06:00:00 22.1 9 Nordeste 26 Nordeste 0 -- -- 55
2017-08-16 05:00:00 23.2 14 Norte 30 Norte 0 -- -- 52
2017-08-16 04:00:00 24.2 14 Norte 30 Nordeste 0 -- -- 51
2017-08-16 03:00:00 25.6 17 Norte 33 Norte 0 -- -- 46
2017-08-16 02:00:00 26.5 16 Norte 32 Norte 0 -- -- 42
2017-08-16 01:00:00 26.9 10 Norte 24 Norte 0 -- -- 37
2017-08-16 00:00:00 27.8 10 Norte 21 Norte 0 -- -- 38
2017-08-15 23:00:00 24.4 9 Norte 18 Norte 0 -- -- 53
2017-08-15 22:00:00 24.4 4 Noroeste 15 Oeste 0 -- -- 73
2017-08-15 21:00:00 25.9 9 Noroeste 32 Noroeste 0 -- -- 61
2017-08-15 20:00:00 27.1 16 Noroeste 35 Noroeste 0 -- -- 61
2017-08-15 19:00:00 28.7 18 Oeste 32 Oeste 0 -- -- 55
2017-08-15 18:00:00 27.7 19 Oeste 34 Oeste 0 -- -- 68
2017-08-15 17:00:00 28.8 18 Oeste 29 Oeste 0 -- -- 62
2017-08-15 16:00:00 29.6 16 Oeste 26 Oeste 0 -- -- 44
2017-08-15 15:00:00 29.7 11 Sudoeste 17 Sudoeste 0 -- -- 48
2017-08-15 14:00:00 30.2 9 Sudoeste 16 Oeste 0 -- -- 48
2017-08-15 13:00:00 28.5 10 Sudoeste 16 Oeste 0 -- -- 53
2017-08-15 12:00:00 27.3 8 Oeste 13 Sudoeste 0 -- -- 52
2017-08-15 11:00:00 25.7 3 Noroeste 15 Noroeste 0 -- -- 55
2017-08-15 10:00:00 22.7 7 Norte 15 Norte 0 -- -- 65
2017-08-15 09:00:00 20.1 5 Norte 18 Noroeste 0 -- -- 76
2017-08-15 08:00:00 18.4 6 Norte 12 Norte 0 -- -- 82
2017-08-15 07:00:00 19.3 5 Norte 18 Norte 0 -- -- 77
2017-08-15 06:00:00 20.2 10 Norte 18 Norte 0 -- -- 73
2017-08-15 05:00:00 19.9 9 Norte 17 Noroeste 0 -- -- 74
2017-08-15 04:00:00 17.9 6 Noroeste 8 Noroeste 0 -- -- 87
2017-08-15 03:00:00 19.6 3 Oeste 4 Oeste 0 -- -- 89
2017-08-15 02:00:00 21.5 2 Oeste 11 Oeste 0 -- -- 88
2017-08-15 01:00:00 22.9 8 Noroeste 14 Oeste 0 -- -- 87
2017-08-15 00:00:00 23.5 9 Oeste 17 Noroeste 0 -- -- 84
2017-08-14 23:00:00 24 10 Oeste 23 Oeste 0 -- -- 81
2017-08-14 22:00:00 24.1 12 Oeste 22 Noroeste 0 -- -- 81
2017-08-14 21:00:00 25 13 Oeste 25 Noroeste 0 -- -- 74
2017-08-14 20:00:00 26.6 14 Oeste 27 Noroeste 0 -- -- 66
2017-08-14 19:00:00 28.1 18 Oeste 30 Noroeste 0 -- -- 61
2017-08-14 18:00:00 28.8 15 Oeste 27 Oeste 0 -- -- 59
2017-08-14 17:00:00 29.4 15 Oeste 25 Oeste 0 -- -- 53
2017-08-14 16:00:00 29.4 16 Oeste 23 Oeste 0 -- -- 50
2017-08-14 15:00:00 29.2 13 Oeste 22 Oeste 0 -- -- 52
2017-08-14 14:00:00 28.9 16 Oeste 22 Oeste 0 -- -- 52
2017-08-14 13:00:00 28.6 13 Oeste 17 Oeste 0 -- -- 53
2017-08-14 12:00:00 28.6 9 Sudoeste 13 Sudoeste 0 -- -- 50
2017-08-14 11:00:00 27.3 7 Oeste 12 Oeste 0 -- -- 57
2017-08-14 10:00:00 25.7 5 Nordeste 13 Nordeste 0 -- -- 60
2017-08-14 09:00:00 20.4 7 Nordeste 11 Este 0 -- -- 82
2017-08-14 08:00:00 17.4 6 Este 8 Este 0 -- -- 93
2017-08-14 07:00:00 17.6 6 Nordeste 8 Este 0 -- -- 92
2017-08-14 06:00:00 18 5 Este 8 Nordeste 0 -- -- 91
2017-08-14 05:00:00 18.7 5 Nordeste 8 Norte 0 -- -- 89
2017-08-14 04:00:00 19.8 4 Nordeste 7 Oeste 0 -- -- 88
2017-08-14 03:00:00 22.3 4 Noroeste 12 Noroeste 0 -- -- 82
2017-08-14 02:00:00 23.1 9 Noroeste 14 Oeste 0 -- -- 80
2017-08-14 01:00:00 23 6 Noroeste 14 Noroeste 0 -- -- 81
2017-08-14 00:00:00 23.2 8 Oeste 17 Noroeste 0 -- -- 82
2017-08-13 23:00:00 23.7 9 Noroeste 20 Noroeste 0 -- -- 77
2017-08-13 22:00:00 24.2 9 Noroeste 21 Oeste 0 -- -- 75
2017-08-13 21:00:00 25.4 12 Noroeste 26 Noroeste 0 -- -- 69
2017-08-13 20:00:00 26.5 16 Noroeste 29 Noroeste 0 -- -- 67
2017-08-13 19:00:00 28.4 14 Oeste 24 Oeste 0 -- -- 61
2017-08-13 18:00:00 29 12 Oeste 19 Oeste 0 -- -- 57
2017-08-13 17:00:00 29.4 14 Oeste 24 Oeste 0 -- -- 54
2017-08-13 16:00:00 29 13 Oeste 21 Oeste 0 -- -- 49
2017-08-13 15:00:00 29.3 13 Oeste 23 Sudoeste 0 -- -- 46
2017-08-13 14:00:00 30.1 13 Sudoeste 19 Sudoeste 0 -- -- 53
2017-08-13 13:00:00 32.7 7 Sudeste 24 Sur 0 -- -- 38
2017-08-13 12:00:00 30.8 10 Sudeste 18 Sudeste 0 -- -- 40
2017-08-13 11:00:00 27.8 6 Este 13 Este 0 -- -- 47
2017-08-13 10:00:00 25 7 Nordeste 13 Nordeste 0 -- -- 57
2017-08-13 09:00:00 20 7 Nordeste 12 Nordeste 0 -- -- 77
2017-08-13 08:00:00 17.2 6 Este 10 Este 0 -- -- 87
2017-08-13 07:00:00 17.6 5 Este 9 Nordeste 0 -- -- 86
2017-08-13 06:00:00 17.8 5 Nordeste 8 Norte 0 -- -- 87
2017-08-13 05:00:00 18.4 5 Norte 7 Norte 0 -- -- 85
2017-08-13 04:00:00 21.1 5 Noroeste 10 Noroeste 0 -- -- 77
2017-08-13 03:00:00 22.3 7 Oeste 15 Noroeste 0 -- -- 78
2017-08-13 02:00:00 22.6 9 Noroeste 15 Noroeste 0 -- -- 76
2017-08-13 01:00:00 23.4 8 Oeste 14 Oeste 0 -- -- 72
2017-08-13 00:00:00 24.4 8 Noroeste 17 Noroeste 0 -- -- 63
2017-08-12 23:00:00 24.4 10 Noroeste 18 Oeste 0 -- -- 65
2017-08-12 22:00:00 24.8 9 Noroeste 19 Noroeste 0 -- -- 66
2017-08-12 21:00:00 26.3 12 Noroeste 22 Noroeste 0 -- -- 59
2017-08-12 20:00:00 27.4 11 Oeste 18 Oeste 0 -- -- 57
2017-08-12 19:00:00 28.1 12 Oeste 21 Sudoeste 0 -- -- 58
2017-08-12 18:00:00 28.8 12 Sudoeste 22 Oeste 0 -- -- 57
2017-08-12 17:00:00 29.2 13 Oeste 23 Oeste 0 -- -- 53
2017-08-12 16:00:00 29.6 14 Oeste 22 Oeste 0 -- -- 47
2017-08-12 15:00:00 29.8 14 Oeste 23 Oeste 0 -- -- 44
2017-08-12 14:00:00 30 12 Oeste 21 Oeste 0 -- -- 44
2017-08-12 13:00:00 29.5 12 Oeste 21 Sur 0 -- -- 47
2017-08-12 12:00:00 29 9 Sudoeste 14 Nordeste 0 -- -- 49
2017-08-12 11:00:00 27.8 6 Este 12 Sudeste 0 -- -- 49
2017-08-12 10:00:00 25.6 6 Este 12 Este 0 -- -- 57
2017-08-12 09:00:00 20.3 6 Nordeste 10 Nordeste 0 -- -- 77
2017-08-12 08:00:00 16.7 6 Nordeste 9 Nordeste 0 -- -- 88
2017-08-12 07:00:00 16.5 6 Nordeste 8 Nordeste 0 -- -- 88
2017-08-12 06:00:00 17.2 6 Nordeste 10 Nordeste 0 -- -- 87
2017-08-12 05:00:00 17.7 5 Nordeste 7 Nordeste 0 -- -- 84
2017-08-12 04:00:00 18.9 3 Nordeste 13 Oeste 0 -- -- 79
2017-08-12 03:00:00 21.1 3 Oeste 13 Sudoeste 0 -- -- 76
2017-08-12 02:00:00 20 0 Calma 6 Noroeste 0 -- -- 79
2017-08-12 01:00:00 21.9 2 Noroeste 11 Oeste 0 -- -- 75
2017-08-12 00:00:00 22.8 5 Oeste 19 Oeste 0 -- -- 78
2017-08-11 23:00:00 24.1 11 Oeste 24 Oeste 0 -- -- 69
2017-08-11 22:00:00 24.4 9 Oeste 19 Oeste 0 -- -- 72
2017-08-11 21:00:00 25.2 10 Oeste 26 Oeste 0 -- -- 69
2017-08-11 20:00:00 27.5 17 Oeste 32 Noroeste 0 -- -- 60
2017-08-11 19:00:00 28.2 19 Oeste 31 Noroeste 0 -- -- 57
2017-08-11 18:00:00 29.3 18 Oeste 25 Oeste 0 -- -- 55
2017-08-11 17:00:00 29.8 15 Oeste 23 Oeste 0 -- -- 52
2017-08-11 16:00:00 29.4 14 Oeste 23 Oeste 0 -- -- 54
2017-08-11 15:00:00 29 13 Oeste 21 Oeste 0 -- -- 56
2017-08-11 14:00:00 28.4 13 Oeste 19 Oeste 0 -- -- 56
2017-08-11 13:00:00 29.8 12 Oeste 21 Sudeste 0 -- -- 52
2017-08-11 12:00:00 30.1 8 Este 18 Sudeste 0 -- -- 50
2017-08-11 11:00:00 27.4 7 Este 19 Este 0 -- -- 56
2017-08-11 10:00:00 24.6 9 Este 20 Este 0 -- -- 74
2017-08-11 09:00:00 20.3 8 Nordeste 14 Nordeste 0 -- -- 92
2017-08-11 08:00:00 18 6 Este 10 Nordeste 0 -- -- 98
2017-08-11 07:00:00 18.1 5 Nordeste 9 Nordeste 0 -- -- 97
2017-08-11 06:00:00 18 5 Nordeste 8 Este 0 -- -- 95
2017-08-11 05:00:00 19 3 Nordeste 4 Nordeste 0 -- -- 93
2017-08-11 04:00:00 21 3 Oeste 8 Oeste 0 -- -- 89
2017-08-11 03:00:00 21.8 5 Sudoeste 13 Sudoeste 0 -- -- 88
2017-08-11 02:00:00 21.6 3 Sudoeste 15 Sudoeste 0 -- -- 87
2017-08-11 01:00:00 21.2 3 Sur 8 Sudeste 0 -- -- 79
2017-08-11 00:00:00 22.2 3 Sudoeste 11 Oeste 0 -- -- 75
2017-08-10 23:00:00 23.1 7 Oeste 15 Oeste 0 -- -- 72
2017-08-10 22:00:00 23.9 11 Noroeste 18 Oeste 0 -- -- 68
2017-08-10 21:00:00 24.9 10 Noroeste 26 Noroeste 0 -- -- 64
2017-08-10 20:00:00 26.4 13 Noroeste 21 Oeste 0 -- -- 63
2017-08-10 19:00:00 26.9 14 Oeste 25 Noroeste 0 -- -- 61
2017-08-10 18:00:00 27.3 15 Oeste 23 Noroeste 0 -- -- 57
2017-08-10 17:00:00 27.8 14 Oeste 22 Oeste 0 -- -- 53
2017-08-10 16:00:00 27.3 13 Oeste 20 Oeste 0 -- -- 54
2017-08-10 15:00:00 26.4 13 Oeste 23 Oeste 0 -- -- 55
2017-08-10 14:00:00 27.4 10 Sudoeste 17 Sudoeste 0 -- -- 47
2017-08-10 13:00:00 28.4 8 Sudoeste 27 Sudeste 0 -- -- 41
2017-08-10 12:00:00 29.1 14 Sudeste 32 Este 0 -- -- 34
2017-08-10 11:00:00 26.9 11 Este 25 Este 0 -- -- 34
2017-08-10 10:00:00 23.2 10 Nordeste 18 Norte 0 -- -- 42
2017-08-10 09:00:00 19.1 9 Norte 18 Norte 0 -- -- 51
2017-08-10 08:00:00 15.4 7 Norte 14 Norte 0 -- -- 65
2017-08-10 07:00:00 16.3 8 Norte 16 Norte 0 -- -- 63
2017-08-10 06:00:00 17.1 8 Norte 17 Norte 0 -- -- 61
2017-08-10 05:00:00 18.4 8 Norte 22 Norte 0 -- -- 58
2017-08-10 04:00:00 19.4 10 Norte 21 Norte 0 -- -- 55
2017-08-10 03:00:00 20.7 11 Norte 25 Norte 0 -- -- 52
2017-08-10 02:00:00 21.8 12 Norte 27 Norte 0 -- -- 50
2017-08-10 01:00:00 23 13 Norte 30 Norte 0 -- -- 47
2017-08-10 00:00:00 24.2 14 Norte 29 Noroeste 0 -- -- 44
2017-08-09 23:00:00 22.1 10 Norte 20 Norte 0 -- -- 47
2017-08-09 22:00:00 21.1 0 Calma 13 Oeste 0 -- -- 76
2017-08-09 21:00:00 23.1 9 Oeste 31 Oeste 0 -- -- 69
2017-08-09 20:00:00 25.6 18 Oeste 31 Oeste 0 -- -- 50
2017-08-09 19:00:00 24.5 18 Oeste 31 Oeste 0 -- -- 64
2017-08-09 18:00:00 25 17 Oeste 33 Oeste 0 -- -- 64
2017-08-09 17:00:00 25.2 19 Oeste 33 Oeste 0 -- -- 59
2017-08-09 16:00:00 25.3 20 Oeste 35 Oeste 0 -- -- 58
2017-08-09 15:00:00 27.3 21 Oeste 36 Noroeste 0 -- -- 47
2017-08-09 14:00:00 29.7 13 Noroeste 27 Noroeste 0 -- -- 35
2017-08-09 13:00:00 27.5 14 Norte 33 Norte 0 -- -- 39
2017-08-09 12:00:00 25.1 12 Norte 28 Norte 0 -- -- 44
2017-08-09 11:00:00 21.9 10 Norte 29 Norte 0 -- -- 52
2017-08-09 10:00:00 19.1 16 Norte 32 Norte 0 -- -- 59
2017-08-09 09:00:00 16.8 14 Norte 36 Nordeste 0 -- -- 65
2017-08-09 08:00:00 15.5 19 Norte 36 Norte 0 -- -- 69
2017-08-09 07:00:00 15.9 14 Norte 36 Norte 0 -- -- 66
2017-08-09 06:00:00 16.6 14 Norte 36 Norte 0 -- -- 62
2017-08-09 05:00:00 17.5 14 Norte 36 Norte 0 -- -- 60
2017-08-09 04:00:00 18.6 16 Norte 34 Norte 0 -- -- 57
2017-08-09 03:00:00 19.8 15 Norte 30 Norte 0 -- -- 52
2017-08-09 02:00:00 21.2 14 Norte 31 Norte 0 -- -- 47
2017-08-09 01:00:00 23 14 Norte 33 Norte 0 -- -- 44
2017-08-09 00:00:00 24.7 15 Norte 35 Norte 0 -- -- 41
2017-08-08 23:00:00 26.8 13 Norte 34 Norte 0 -- -- 34
2017-08-08 22:00:00 27.1 8 Norte 16 Norte 0 -- -- 24
2017-08-08 21:00:00 30 8 Norte 21 Nordeste 0 -- -- 23
2017-08-08 20:00:00 25.5 14 Oeste 30 Noroeste 0 -- -- 63
2017-08-08 19:00:00 26.8 16 Oeste 31 Oeste 0 -- -- 55
2017-08-08 18:00:00 26.2 22 Oeste 37 Oeste 0 -- -- 59
2017-08-08 17:00:00 31.8 19 Noroeste 32 Norte 0 -- -- 43
2017-08-08 16:00:00 33.8 12 Norte 32 Norte 0 -- -- 20
2017-08-08 15:00:00 32.7 13 Nordeste 31 Norte 0 -- -- 26
2017-08-08 14:00:00 31.4 15 Norte 32 Noroeste 0 -- -- 29
2017-08-08 13:00:00 29.2 16 Norte 34 Nordeste 0 -- -- 33
2017-08-08 12:00:00 27.1 17 Norte 32 Norte 0 -- -- 43
2017-08-08 11:00:00 24.2 15 Norte 32 Nordeste 0 -- -- 51
2017-08-08 10:00:00 22.1 11 Nordeste 31 Norte 0 -- -- 56
2017-08-08 09:00:00 19.7 12 Norte 29 Nordeste 0 -- -- 63
2017-08-08 08:00:00 18.4 14 Norte 30 Norte 0 -- -- 68
2017-08-08 07:00:00 19 15 Norte 33 Nordeste 0 -- -- 65
2017-08-08 06:00:00 19.8 15 Norte 35 Norte 0 -- -- 60
2017-08-08 05:00:00 20.7 15 Norte 37 Norte 0 -- -- 55
2017-08-08 04:00:00 22 15 Norte 36 Norte 0 -- -- 49
2017-08-08 03:00:00 23.4 11 Norte 27 Norte 0 -- -- 42
2017-08-08 02:00:00 24.7 11 Norte 24 Nordeste 0 -- -- 47
2017-08-08 01:00:00 26.1 12 Norte 30 Norte 0 -- -- 40
2017-08-08 00:00:00 28 14 Norte 33 Norte 0 -- -- 30
2017-08-07 23:00:00 27.6 9 Norte 17 Norte 0 -- -- 30
2017-08-07 22:00:00 27.5 8 Norte 13 Noroeste 0 -- -- 33
2017-08-07 21:00:00 29 9 Noroeste 23 Noroeste 0 -- -- 35
2017-08-07 20:00:00 28.1 15 Oeste 29 Oeste 0 -- -- 45
2017-08-07 19:00:00 29.6 18 Noroeste 33 Oeste 0 -- -- 39
2017-08-07 18:00:00 29.6 17 Noroeste 33 Noroeste 0 -- -- 42
2017-08-07 17:00:00 29.3 20 Oeste 33 Oeste 0 -- -- 48
2017-08-07 16:00:00 28.2 19 Oeste 35 Noroeste 0 -- -- 55
2017-08-07 15:00:00 31.4 24 Oeste 36 Oeste 0 -- -- 43
2017-08-07 14:00:00 32.7 9 Sur 15 Sur 0 -- -- 36
2017-08-07 13:00:00 33.8 9 Sur 19 Sur 0 -- -- 26
2017-08-07 12:00:00 32.8 9 Norte 24 Norte 0 -- -- 27
2017-08-07 11:00:00 30.9 6 Norte 24 Norte 0 -- -- 32
2017-08-07 10:00:00 24.8 12 Norte 27 Norte 0 -- -- 50
2017-08-07 09:00:00 22.3 4 Nordeste 18 Norte 0 -- -- 58
2017-08-07 08:00:00 20.3 4 Este 14 Nordeste 0 -- -- 66
2017-08-07 07:00:00 20.4 6 Norte 13 Norte 0 -- -- 66
2017-08-07 06:00:00 21.9 6 Nordeste 17 Nordeste 0 -- -- 62
2017-08-07 05:00:00 23.2 0 Calma 20 Norte 0 -- -- 59
2017-08-07 04:00:00 24.7 11 Norte 21 Norte 0 -- -- 54
2017-08-07 03:00:00 25.8 12 Norte 22 Nordeste 0 -- -- 51
2017-08-07 02:00:00 26.7 10 Norte 20 Norte 0 -- -- 47
2017-08-07 01:00:00 26.5 9 Norte 19 Norte 0 -- -- 45
2017-08-07 00:00:00 24.8 6 Norte 12 Norte 0 -- -- 50
2017-08-06 23:00:00 24.2 9 Noroeste 27 Oeste 0 -- -- 61
2017-08-06 22:00:00 25.2 11 Noroeste 21 Noroeste 0 -- -- 57
2017-08-06 21:00:00 26.2 10 Noroeste 30 Noroeste 0 -- -- 50
2017-08-06 20:00:00 27.4 14 Oeste 30 Noroeste 0 -- -- 47
2017-08-06 19:00:00 27.9 17 Noroeste 35 Oeste 0 -- -- 44
2017-08-06 18:00:00 27.4 24 Oeste 39 Oeste 0 -- -- 49
2017-08-06 17:00:00 29.1 21 Oeste 38 Oeste 0 -- -- 42
2017-08-06 16:00:00 28.9 22 Oeste 35 Oeste 0 -- -- 45
2017-08-06 15:00:00 32.7 20 Oeste 31 Oeste 0 -- -- 39
2017-08-06 14:00:00 37 9 Norte 21 Noroeste 0 -- -- 15
2017-08-06 13:00:00 34.5 9 Nordeste 24 Norte 0 -- -- 23
2017-08-06 12:00:00 31.5 12 Norte 22 Nordeste 0 -- -- 31
2017-08-06 11:00:00 27.5 10 Norte 22 Nordeste 0 -- -- 44
2017-08-06 10:00:00 23.6 10 Norte 23 Norte 0 -- -- 58
2017-08-06 09:00:00 20.4 12 Norte 21 Norte 0 -- -- 67
2017-08-06 08:00:00 19 8 Norte 23 Nordeste 0 -- -- 69
2017-08-06 07:00:00 19.9 14 Norte 30 Nordeste 0 -- -- 65
2017-08-06 06:00:00 20.9 14 Nordeste 32 Norte 0 -- -- 61
2017-08-06 05:00:00 22.4 13 Norte 31 Norte 0 -- -- 56
2017-08-06 04:00:00 23.7 10 Norte 27 Norte 0 -- -- 53
2017-08-06 03:00:00 25 16 Norte 31 Norte 0 -- -- 53
2017-08-06 02:00:00 26.6 14 Norte 32 Norte 0 -- -- 48
2017-08-06 01:00:00 28.5 13 Norte 26 Norte 0 -- -- 42
2017-08-06 00:00:00 30.3 12 Norte 25 Norte 0 -- -- 36
2017-08-05 23:00:00 31.5 12 Norte 24 Norte 0 -- -- 35
2017-08-05 22:00:00 29.6 7 Norte 20 Noroeste 0 -- -- 43
2017-08-05 21:00:00 29.8 14 Noroeste 24 Oeste 0 -- -- 48
2017-08-05 20:00:00 28.6 15 Oeste 29 Oeste 0 -- -- 59
2017-08-05 19:00:00 29.9 18 Oeste 32 Oeste 0 -- -- 53
2017-08-05 18:00:00 30.3 18 Oeste 35 Noroeste 0 -- -- 49
2017-08-05 17:00:00 29.5 21 Oeste 32 Oeste 0 -- -- 53
2017-08-05 16:00:00 29.5 20 Oeste 32 Oeste 0 -- -- 57
2017-08-05 15:00:00 34.5 20 Oeste 28 Oeste 0 -- -- 44
2017-08-05 14:00:00 38.5 5 Norte 20 Norte 0 -- -- 33
2017-08-05 13:00:00 36 8 Norte 21 Nordeste 0 -- -- 37
2017-08-05 12:00:00 32.7 14 Nordeste 30 Nordeste 0 -- -- 44
2017-08-05 11:00:00 29.4 14 Norte 30 Norte 0 -- -- 54
2017-08-05 10:00:00 26.5 15 Norte 30 Nordeste 0 -- -- 62
2017-08-05 09:00:00 24.2 16 Norte 29 Norte 0 -- -- 69
2017-08-05 08:00:00 23 13 Norte 36 Norte 0 -- -- 72
2017-08-05 07:00:00 23.7 16 Norte 32 Norte 0 -- -- 68
2017-08-05 06:00:00 24.9 15 Norte 36 Norte 0 -- -- 64
2017-08-05 05:00:00 26.4 15 Norte 33 Norte 0 -- -- 58
2017-08-05 04:00:00 27.8 14 Norte 26 Norte 0 -- -- 52
2017-08-05 03:00:00 29.2 13 Norte 24 Norte 0 -- -- 47
2017-08-05 02:00:00 30.5 10 Norte 25 Norte 0 -- -- 43
2017-08-05 01:00:00 31.7 13 Norte 26 Nordeste 0 -- -- 41
2017-08-05 00:00:00 31.8 9 Norte 18 Norte 0 -- -- 42
2017-08-04 23:00:00 31.5 6 Noroeste 26 Noroeste 0 -- -- 41
2017-08-04 22:00:00 31.9 13 Noroeste 25 Noroeste 0 -- -- 39
2017-08-04 21:00:00 31.3 17 Oeste 29 Noroeste 0 -- -- 45
2017-08-04 20:00:00 33 18 Oeste 32 Oeste 0 -- -- 41
2017-08-04 19:00:00 33.3 20 Noroeste 35 Oeste 0 -- -- 41
2017-08-04 18:00:00 34.2 19 Oeste 35 Oeste 0 -- -- 39
2017-08-04 17:00:00 34.2 21 Oeste 32 Noroeste 0 -- -- 47
2017-08-04 16:00:00 36.3 13 Oeste 23 Oeste 0 -- -- 37
2017-08-04 15:00:00 37.1 13 Oeste 23 Oeste 0 -- -- 35
2017-08-04 14:00:00 37.9 12 Oeste 15 Oeste 0 -- -- 33
2017-08-04 13:00:00 37.8 8 Sudoeste 15 Este 0 -- -- 35
2017-08-04 12:00:00 36.4 5 Nordeste 17 Nordeste 0 -- -- 36
2017-08-04 11:00:00 32.7 7 Nordeste 20 Nordeste 0 -- -- 42
2017-08-04 10:00:00 28.6 8 Norte 21 Nordeste 0 -- -- 49
2017-08-04 09:00:00 25.3 9 Norte 19 Norte 0 -- -- 55
2017-08-04 08:00:00 23.3 11 Norte 21 Norte 0 -- -- 61
2017-08-04 07:00:00 24.3 12 Norte 26 Norte 0 -- -- 59
2017-08-04 06:00:00 25.2 12 Norte 26 Norte 0 -- -- 58
2017-08-04 05:00:00 26.1 13 Norte 26 Norte 0 -- -- 56
2017-08-04 04:00:00 27.2 12 Norte 25 Norte 0 -- -- 54
2017-08-04 03:00:00 28.2 11 Norte 25 Nordeste 0 -- -- 53
2017-08-04 02:00:00 29 13 Norte 26 Norte 0 -- -- 51
2017-08-04 01:00:00 26.8 9 Nordeste 15 Nordeste 0 -- -- 51
2017-08-04 00:00:00 25.6 6 Norte 11 Norte 0 -- -- 49
2017-08-03 23:00:00 26.7 8 Norte 12 Norte 0 -- -- 47
2017-08-03 22:00:00 29.1 8 Noroeste 31 Noroeste 0 -- -- 39
2017-08-03 21:00:00 29.7 14 Noroeste 30 Noroeste 0 -- -- 42
2017-08-03 20:00:00 30.1 18 Noroeste 30 Noroeste 0 -- -- 41
2017-08-03 19:00:00 29.1 19 Noroeste 31 Oeste 0 -- -- 49
2017-08-03 18:00:00 29.3 18 Noroeste 33 Oeste 0 -- -- 49
2017-08-03 17:00:00 28.7 18 Oeste 37 Oeste 0 -- -- 51
2017-08-03 16:00:00 29 22 Oeste 32 Oeste 0 -- -- 52
2017-08-03 15:00:00 37.4 12 Noroeste 26 Noroeste 0 -- -- 21
2017-08-03 14:00:00 35.6 14 Noroeste 24 Noroeste 0 -- -- 28
2017-08-03 13:00:00 34.1 8 Norte 21 Norte 0 -- -- 29
2017-08-03 12:00:00 30.8 10 Norte 23 Norte 0 -- -- 38
2017-08-03 11:00:00 27.3 11 Norte 23 Norte 0 -- -- 47
2017-08-03 10:00:00 24.4 9 Norte 21 Norte 0 -- -- 57
2017-08-03 09:00:00 21.4 8 Nordeste 26 Nordeste 0 -- -- 68
2017-08-03 08:00:00 19.6 14 Norte 31 Norte 0 -- -- 72
2017-08-03 07:00:00 20.1 14 Norte 30 Norte 0 -- -- 66
2017-08-03 06:00:00 20.6 15 Norte 31 Norte 0 -- -- 59
2017-08-03 05:00:00 21.3 14 Norte 30 Norte 0 -- -- 52
2017-08-03 04:00:00 22.3 15 Norte 28 Norte 0 -- -- 43
2017-08-03 03:00:00 23.5 12 Norte 24 Norte 0 -- -- 42
2017-08-03 02:00:00 24.5 11 Norte 25 Nordeste 0 -- -- 43
2017-08-03 01:00:00 25.4 13 Norte 26 Norte 0 -- -- 43
2017-08-03 00:00:00 25.8 13 Norte 26 Norte 0 -- -- 43
2017-08-02 23:00:00 22 8 Norte 14 Noroeste 0 -- -- 62
2017-08-02 22:00:00 24.5 8 Noroeste 24 Oeste 0 -- -- 62
2017-08-02 21:00:00 25.2 14 Noroeste 32 Noroeste 0 -- -- 59
2017-08-02 20:00:00 26.5 18 Oeste 34 Oeste 0 -- -- 53
2017-08-02 19:00:00 27.2 22 Oeste 39 Oeste 0 -- -- 44
2017-08-02 18:00:00 26.5 22 Oeste 36 Noroeste 0 -- -- 50
2017-08-02 17:00:00 26.3 22 Oeste 34 Oeste 0 -- -- 60
2017-08-02 16:00:00 26.7 19 Oeste 32 Oeste 0 -- -- 63
2017-08-02 15:00:00 31.4 17 Oeste 26 Oeste 0 -- -- 31
2017-08-02 14:00:00 32.3 9 Noroeste 24 Norte 0 -- -- 26
2017-08-02 13:00:00 30.8 13 Norte 24 Noroeste 0 -- -- 29
2017-08-02 12:00:00 29.5 11 Nordeste 25 Nordeste 0 -- -- 31
2017-08-02 11:00:00 26 14 Norte 27 Norte 0 -- -- 39
2017-08-02 10:00:00 22.3 14 Nordeste 28 Norte 0 -- -- 50
2017-08-02 09:00:00 19.3 14 Norte 27 Norte 0 -- -- 59
2017-08-02 08:00:00 17.7 12 Norte 30 Norte 0 -- -- 63
2017-08-02 07:00:00 -- -- -- -- -- -- -- -- --
2017-08-02 06:00:00 18.9 10 Nordeste 25 Norte 0 -- -- 61
2017-08-02 05:00:00 19.7 13 Norte 27 Norte 0 -- -- 59
2017-08-02 04:00:00 20.6 13 Norte 29 Norte 0 -- -- 56
2017-08-02 03:00:00 21.7 14 Norte 30 Norte 0 -- -- 51
2017-08-02 02:00:00 22.1 12 Norte 25 Norte 0 -- -- 52
2017-08-02 01:00:00 23.2 11 Norte 31 Norte 0 -- -- 53
2017-08-02 00:00:00 24.3 14 Norte 33 Norte 0 -- -- 49
2017-08-01 23:00:00 25.4 15 Norte 38 Norte 0 -- -- 47
2017-08-01 22:00:00 24.4 8 Norte 22 Oeste 0 -- -- 44
2017-08-01 21:00:00 26 15 Oeste 29 Noroeste 0 -- -- 52
2017-08-01 20:00:00 27.1 19 Noroeste 32 Oeste 0 -- -- 45
2017-08-01 19:00:00 25.7 18 Oeste 33 Oeste 0 -- -- 58
2017-08-01 18:00:00 26.2 21 Oeste 33 Noroeste 0 -- -- 59
2017-08-01 17:00:00 26.8 22 Oeste 34 Oeste 0 -- -- 58
2017-08-01 16:00:00 33.2 12 Norte 26 Noroeste 0 -- -- 24
2017-08-01 15:00:00 31.9 12 Noroeste 26 Noroeste 0 -- -- 26
2017-08-01 14:00:00 29.8 12 Norte 30 Norte 0 -- -- 28
2017-08-01 13:00:00 28.1 14 Norte 34 Norte 0 -- -- 32
2017-08-01 12:00:00 23 16 Norte 34 Norte 0 -- -- 44
2017-08-01 11:00:00 21.6 16 Norte 33 Norte 0 -- -- 47
2017-08-01 10:00:00 20.9 12 Norte 35 Norte 0 -- -- 47
2017-08-01 09:00:00 20 11 Norte 25 Nordeste 0 -- -- 49
2017-08-01 08:00:00 19.6 12 Norte 23 Norte 0 -- -- 50
2017-08-01 07:00:00 20 10 Norte 23 Norte 0 -- -- 54
2017-08-01 06:00:00 20.4 12 Norte 23 Norte 0 -- -- 56
2017-08-01 05:00:00 20.9 5 Norte 17 Norte 0 -- -- 58
2017-08-01 04:00:00 21.3 9 Norte 21 Norte 0 -- -- 60
2017-08-01 03:00:00 22 11 Norte 26 Norte 0 -- -- 59
2017-08-01 02:00:00 22.3 10 Norte 23 Norte 0 -- -- 56
2017-08-01 01:00:00 22.4 11 Norte 25 Nordeste 0 -- -- 50
2017-08-01 00:00:00 23.4 12 Norte 26 Nordeste 0 -- -- 43
2017-07-31 23:00:00 24.4 11 Norte 27 Norte 0 -- -- 39
2017-07-31 22:00:00 26 14 Norte 38 Noroeste 0 -- -- 40
2017-07-31 21:00:00 25.3 13 Noroeste 24 Noroeste 0 -- -- 57
2017-07-31 20:00:00 24.8 15 Noroeste 30 Noroeste 0 -- -- 64
2017-07-31 19:00:00 25.3 18 Oeste 33 Oeste 0 -- -- 62
2017-07-31 18:00:00 25.7 19 Oeste 37 Oeste 0 -- -- 62
2017-07-31 17:00:00 26.2 24 Oeste 40 Oeste 0 -- -- 59
2017-07-31 16:00:00 27 25 Oeste 35 Oeste 0 -- -- 57
2017-07-31 15:00:00 31.1 15 Oeste 26 Oeste 0 -- -- 34
2017-07-31 14:00:00 32.2 14 Noroeste 25 Noroeste 0 -- -- 24
2017-07-31 13:00:00 30.2 13 Noroeste 25 Noroeste 0 -- -- 30
2017-07-31 12:00:00 27.7 14 Nordeste 28 Norte 0 -- -- 35
2017-07-31 11:00:00 24.5 15 Norte 32 Norte 0 -- -- 45
2017-07-31 10:00:00 22.5 15 Norte 32 Norte 0 -- -- 50
2017-07-31 09:00:00 20.4 11 Norte 26 Norte 0 -- -- 58
2017-07-31 08:00:00 18.8 9 Norte 27 Norte 0 -- -- 63
2017-07-31 07:00:00 19.3 15 Norte 30 Norte 0 -- -- 63
2017-07-31 06:00:00 19.9 11 Norte 22 Norte 0 -- -- 61
2017-07-31 05:00:00 21 11 Norte 31 Norte 0 -- -- 58
2017-07-31 04:00:00 22.1 15 Norte 31 Norte 0 -- -- 55
2017-07-31 03:00:00 23.8 13 Norte 30 Norte 0 -- -- 50
2017-07-31 02:00:00 25.5 15 Norte 30 Norte 0 -- -- 44
2017-07-31 01:00:00 27.1 14 Norte 32 Norte 0 -- -- 40
2017-07-31 00:00:00 28.8 17 Norte 36 Noroeste 0 -- -- 37
2017-07-30 23:00:00 27.2 8 Norte 21 Nordeste 0 -- -- 46
2017-07-30 22:00:00 27 10 Noroeste 33 Noroeste 0 -- -- 57
2017-07-30 21:00:00 28.3 20 Noroeste 35 Noroeste 0 -- -- 51
2017-07-30 20:00:00 28.8 18 Noroeste 33 Noroeste 0 -- -- 56
2017-07-30 19:00:00 -- -- -- -- -- -- -- -- --
2017-07-30 18:00:00 -- -- -- -- -- -- -- -- --
2017-07-30 17:00:00 -- -- -- -- -- -- -- -- --
2017-07-30 16:00:00 -- -- -- -- -- -- -- -- --
2017-07-30 15:00:00 -- -- -- -- -- -- -- -- --
2017-07-30 14:00:00 -- -- -- -- -- -- -- -- --
2017-07-30 13:00:00 -- -- -- -- -- -- -- -- --
2017-07-30 12:00:00 -- -- -- -- -- -- -- -- --
2017-07-30 11:00:00 -- -- -- -- -- -- -- -- --
2017-07-30 10:00:00 -- -- -- -- -- -- -- -- --
2017-07-30 09:00:00 -- -- -- -- -- -- -- -- --
2017-07-30 08:00:00 -- -- -- -- -- -- -- -- --
2017-07-30 07:00:00 -- -- -- -- -- -- -- -- --
2017-07-30 06:00:00 -- -- -- -- -- -- -- -- --
2017-07-30 05:00:00 -- -- -- -- -- -- -- -- --
2017-07-30 04:00:00 -- -- -- -- -- -- -- -- --
2017-07-30 03:00:00 -- -- -- -- -- -- -- -- --
2017-07-30 02:00:00 -- -- -- -- -- -- -- -- --
2017-07-30 01:00:00 -- -- -- -- -- -- -- -- --
2017-07-30 00:00:00 -- -- -- -- -- -- -- -- --
2017-07-29 23:00:00 -- -- -- -- -- -- -- -- --
2017-07-29 22:00:00 -- -- -- -- -- -- -- -- --
2017-07-29 21:00:00 -- -- -- -- -- -- -- -- --
2017-07-29 20:00:00 -- -- -- -- -- -- -- -- --
2017-07-29 19:00:00 -- -- -- -- -- -- -- -- --
2017-07-29 18:00:00 -- -- -- -- -- -- -- -- --
2017-07-29 17:00:00 -- -- -- -- -- -- -- -- --
2017-07-29 16:00:00 -- -- -- -- -- -- -- -- --
2017-07-29 15:00:00 -- -- -- -- -- -- -- -- --
2017-07-29 14:00:00 -- -- -- -- -- -- -- -- --
2017-07-29 13:00:00 -- -- -- -- -- -- -- -- --
2017-07-29 12:00:00 -- -- -- -- -- -- -- -- --
2017-07-29 11:00:00 -- -- -- -- -- -- -- -- --
2017-07-29 10:00:00 26.2 9 Norte 17 Norte 0 -- -- 59
2017-07-29 09:00:00 22.3 5 Norte 12 Norte 0 -- -- 71
2017-07-29 08:00:00 19.6 3 Este 10 Norte 0 -- -- 78
2017-07-29 07:00:00 20.5 4 Nordeste 12 Norte 0 -- -- 75
2017-07-29 06:00:00 21.9 8 Nordeste 21 Norte 0 -- -- 71
2017-07-29 05:00:00 23.5 8 Nordeste 22 Norte 0 -- -- 66
2017-07-29 04:00:00 24.6 10 Norte 18 Norte 0 -- -- 62
2017-07-29 03:00:00 25.6 8 Nordeste 17 Nordeste 0 -- -- 58
2017-07-29 02:00:00 27.3 10 Norte 21 Norte 0 -- -- 53
2017-07-29 01:00:00 28.2 10 Norte 23 Norte 0 -- -- 50
2017-07-29 00:00:00 27.1 12 Norte 22 Norte 0 -- -- 52
2017-07-28 23:00:00 26.3 8 Noroeste 23 Noroeste 0 -- -- 64
2017-07-28 22:00:00 27.4 14 Noroeste 27 Noroeste 0 -- -- 53
2017-07-28 21:00:00 28.5 12 Noroeste 28 Oeste 0 -- -- 48
2017-07-28 20:00:00 27.9 15 Oeste 31 Noroeste 0 -- -- 53
2017-07-28 19:00:00 27.1 17 Oeste 29 Oeste 0 -- -- 68
2017-07-28 18:00:00 28 18 Oeste 31 Oeste 0 -- -- 61
2017-07-28 17:00:00 28.1 20 Oeste 31 Oeste 0 -- -- 60
2017-07-28 16:00:00 28 19 Oeste 31 Noroeste 0 -- -- 60
2017-07-28 15:00:00 29.2 19 Oeste 32 Oeste 0 -- -- 51
2017-07-28 14:00:00 35.2 13 Noroeste 23 Noroeste 0 -- -- 31
2017-07-28 13:00:00 33.1 12 Noroeste 24 Noroeste 0 -- -- 39
2017-07-28 12:00:00 30.9 8 Norte 18 Norte 0 -- -- 43
2017-07-28 11:00:00 27.6 10 Norte 24 Norte 0 -- -- 54
2017-07-28 10:00:00 24.2 10 Norte 26 Norte 0 -- -- 64
2017-07-28 09:00:00 20.5 15 Norte 31 Norte 0 -- -- 78
2017-07-28 08:00:00 18.6 15 Norte 29 Norte 0 -- -- 84
2017-07-28 07:00:00 19 13 Norte 30 Norte 0 -- -- 80
2017-07-28 06:00:00 20.1 15 Norte 28 Norte 0 -- -- 74
2017-07-28 05:00:00 21.1 14 Norte 25 Norte 0 -- -- 69
2017-07-28 04:00:00 22.1 10 Norte 22 Norte 0 -- -- 65
2017-07-28 03:00:00 23.6 9 Norte 24 Norte 0 -- -- 62
2017-07-28 02:00:00 25 12 Norte 26 Norte 0 -- -- 57
2017-07-28 01:00:00 26.5 12 Norte 29 Norte 0 -- -- 51
2017-07-28 00:00:00 27 13 Norte 23 Norte 0 -- -- 46
2017-07-27 23:00:00 23.2 5 Norte 13 Sur 0 -- -- 74
2017-07-27 22:00:00 25.1 4 Noroeste 13 Oeste 0 -- -- 64
2017-07-27 21:00:00 27.6 8 Oeste 18 Oeste 0 -- -- 57
2017-07-27 20:00:00 27 12 Oeste 19 Oeste 0 -- -- 56
2017-07-27 19:00:00 26.8 13 Oeste 25 Oeste 0 -- -- 61
2017-07-27 18:00:00 26.9 15 Oeste 26 Oeste 0 -- -- 62
2017-07-27 17:00:00 27.2 18 Oeste 27 Oeste 0 -- -- 62
2017-07-27 16:00:00 28.7 14 Oeste 22 Oeste 0 -- -- 52
2017-07-27 15:00:00 28.6 13 Oeste 21 Oeste 0 -- -- 50
2017-07-27 14:00:00 30.1 9 Sudoeste 15 Sur 0 -- -- 41
2017-07-27 13:00:00 28.9 9 Sudoeste 14 Sudoeste 0 -- -- 41
2017-07-27 12:00:00 27.8 8 Sudoeste 15 Sur 0 -- -- 43
2017-07-27 11:00:00 25.9 4 Sudoeste 9 Sur 0 -- -- 46
2017-07-27 10:00:00 24.2 0 Calma 6 Nordeste 0 -- -- 48
2017-07-27 09:00:00 18.3 3 Este 6 Este 0 -- -- 81
2017-07-27 08:00:00 14.8 3 Este 6 Este 0 -- -- 89
2017-07-27 07:00:00 15.7 4 Este 9 Nordeste 0 -- -- 88
2017-07-27 06:00:00 16 5 Nordeste 10 Norte 0 -- -- 90
2017-07-27 05:00:00 16 4 Norte 6 Norte 0 -- -- 94
2017-07-27 04:00:00 16.4 5 Nordeste 6 Norte 0 -- -- 95
2017-07-27 03:00:00 17.2 3 Nordeste 6 Nordeste 0 -- -- 95
2017-07-27 02:00:00 17.9 4 Este 6 Este 0 -- -- 95
2017-07-27 01:00:00 18.9 3 Nordeste 5 Nordeste 0 -- -- 92
2017-07-27 00:00:00 20.7 4 Noroeste 10 Oeste 0 -- -- 92
2017-07-26 23:00:00 21.5 4 Oeste 8 Oeste 0 -- -- 92
2017-07-26 22:00:00 22.7 4 Oeste 14 Oeste 0 -- -- 87
2017-07-26 21:00:00 23.8 10 Oeste 18 Oeste 0 -- -- 82
2017-07-26 20:00:00 24.7 13 Oeste 18 Oeste 0 -- -- 80
2017-07-26 19:00:00 26 11 Oeste 18 Oeste 0 -- -- 71
2017-07-26 18:00:00 25.7 10 Oeste 18 Oeste 0 -- -- 74
2017-07-26 17:00:00 25.9 10 Oeste 17 Oeste 0 -- -- 73
2017-07-26 16:00:00 25.7 12 Sudoeste 18 Oeste 0 -- -- 73
2017-07-26 15:00:00 25.8 10 Sudoeste 19 Sudoeste 0 -- -- 74
2017-07-26 14:00:00 26.2 10 Sudoeste 21 Sur 0 -- -- 71
2017-07-26 13:00:00 25.7 10 Sur 18 Sur 0 -- -- 72
2017-07-26 12:00:00 24.4 11 Sur 19 Sur 0 -- -- 77
2017-07-26 11:00:00 23.3 8 Sur 16 Sudeste 0 -- -- 84
2017-07-26 10:00:00 22.5 7 Sur 15 Sur 0 -- -- 88
2017-07-26 09:00:00 20.9 3 Este 8 Este 0 -- -- 90
2017-07-26 08:00:00 19.1 5 Este 9 Este 0 -- -- 93
2017-07-26 07:00:00 18 5 Nordeste 10 Este 0 -- -- 92
2017-07-26 06:00:00 17.3 6 Nordeste 9 Nordeste 0 -- -- 92
2017-07-26 05:00:00 18 5 Este 11 Este 0 -- -- 89
2017-07-26 04:00:00 18.3 6 Este 11 Este 0 -- -- 90
2017-07-26 03:00:00 18.7 5 Nordeste 10 Nordeste 0 -- -- 90
2017-07-26 02:00:00 18.9 5 Este 9 Este 0 -- -- 91
2017-07-26 01:00:00 19.9 4 Este 8 Este 0 -- -- 89
2017-07-26 00:00:00 22 2 Noroeste 9 Oeste 0 -- -- 82
2017-07-25 23:00:00 23.1 6 Sudoeste 15 Oeste 0 -- -- 80
2017-07-25 22:00:00 23.4 8 Oeste 13 Oeste 0 -- -- 77
2017-07-25 21:00:00 24.6 10 Oeste 18 Oeste 0 -- -- 73
2017-07-25 20:00:00 25.1 13 Oeste 24 Oeste 0 -- -- 72
2017-07-25 19:00:00 26.3 16 Oeste 27 Oeste 0 -- -- 63
2017-07-25 18:00:00 26.4 17 Oeste 28 Oeste 0 -- -- 65
2017-07-25 17:00:00 26.1 15 Oeste 28 Oeste 0 -- -- 68
2017-07-25 16:00:00 26.7 19 Oeste 30 Oeste 0 -- -- 67
2017-07-25 15:00:00 28 21 Oeste 29 Oeste 0 -- -- 62
2017-07-25 14:00:00 31.8 15 Oeste 21 Oeste 0 -- -- 41
2017-07-25 13:00:00 33.3 15 Oeste 22 Oeste 0 -- -- 37
2017-07-25 12:00:00 31.6 7 Norte 20 Norte 0 -- -- 38
2017-07-25 11:00:00 27.5 12 Norte 22 Norte 0 -- -- 49
2017-07-25 10:00:00 24.4 9 Norte 28 Norte 0 -- -- 58
2017-07-25 09:00:00 20.8 16 Norte 30 Norte 0 -- -- 69
2017-07-25 08:00:00 19.2 9 Norte 27 Norte 0 -- -- 74
2017-07-25 07:00:00 19.9 14 Norte 27 Norte 0 -- -- 70
2017-07-25 06:00:00 20.7 14 Norte 31 Norte 0 -- -- 67
2017-07-25 05:00:00 22 15 Norte 31 Norte 0 -- -- 63
2017-07-25 04:00:00 23.2 16 Norte 31 Norte 0 -- -- 59
2017-07-25 03:00:00 24.6 11 Norte 22 Norte 0 -- -- 55
2017-07-25 02:00:00 26.1 11 Norte 31 Noroeste 0 -- -- 50
2017-07-25 01:00:00 27.6 12 Norte 25 Noroeste 0 -- -- 46
2017-07-25 00:00:00 28.2 11 Norte 22 Norte 0 -- -- 45
2017-07-24 23:00:00 25.2 6 Norte 12 Norte 0 -- -- 49
2017-07-24 22:00:00 25.5 4 Norte 13 Noroeste 0 -- -- 67
2017-07-24 21:00:00 28.1 10 Oeste 32 Noroeste 0 -- -- 60
2017-07-24 20:00:00 29.1 21 Noroeste 40 Noroeste 0 -- -- 55
2017-07-24 19:00:00 29.3 21 Noroeste 41 Noroeste 0 -- -- 55
2017-07-24 18:00:00 28.8 22 Oeste 41 Noroeste 0 -- -- 58
2017-07-24 17:00:00 29.1 22 Oeste 35 Oeste 0 -- -- 57
2017-07-24 16:00:00 36.2 11 Oeste 27 Norte 0 -- -- 26
2017-07-24 15:00:00 35.8 10 Noroeste 26 Norte 0 -- -- 32
2017-07-24 14:00:00 34.8 10 Norte 24 Norte 0 -- -- 33
2017-07-24 13:00:00 32.8 8 Nordeste 24 Norte 0 -- -- 39
2017-07-24 12:00:00 30.7 12 Nordeste 26 Norte 0 -- -- 44
2017-07-24 11:00:00 27.5 13 Norte 27 Norte 0 -- -- 52
2017-07-24 10:00:00 24.3 13 Nordeste 34 Norte 0 -- -- 61
2017-07-24 09:00:00 21.7 14 Norte 28 Norte 0 -- -- 69
2017-07-24 08:00:00 20.5 15 Norte 31 Norte 0 -- -- 72
2017-07-24 07:00:00 20.8 12 Norte 28 Norte 0 -- -- 70
2017-07-24 06:00:00 21.8 14 Norte 29 Norte 0 -- -- 66
2017-07-24 05:00:00 22.4 12 Norte 28 Norte 0 -- -- 63
2017-07-24 04:00:00 23.2 13 Norte 27 Norte 0 -- -- 60
2017-07-24 03:00:00 24.8 14 Norte 26 Norte 0 -- -- 54
2017-07-24 02:00:00 25.1 10 Norte 21 Norte 0 -- -- 51
2017-07-24 01:00:00 23.5 9 Norte 17 Norte 0 -- -- 54
2017-07-24 00:00:00 22.9 6 Norte 25 Noroeste 0 -- -- 70
2017-07-23 23:00:00 24.6 13 Noroeste 24 Noroeste 0 -- -- 67
2017-07-23 22:00:00 24.6 12 Noroeste 21 Oeste 0 -- -- 62
2017-07-23 21:00:00 25.8 13 Oeste 27 Noroeste 0 -- -- 61
2017-07-23 20:00:00 26 16 Noroeste 31 Noroeste 0 -- -- 58
2017-07-23 19:00:00 26 18 Oeste 35 Oeste 0 -- -- 62
2017-07-23 18:00:00 25.9 19 Oeste 33 Oeste 0 -- -- 64
2017-07-23 17:00:00 25.7 23 Oeste 34 Oeste 0 -- -- 68
2017-07-23 16:00:00 26.8 21 Oeste 31 Oeste 0 -- -- 65
2017-07-23 15:00:00 27.5 22 Oeste 29 Oeste 0 -- -- 55
2017-07-23 14:00:00 29.4 15 Oeste 26 Oeste 0 -- -- 45
2017-07-23 13:00:00 30.4 13 Noroeste 26 Oeste 0 -- -- 40
2017-07-23 12:00:00 28.8 6 Norte 17 Norte 0 -- -- 43
2017-07-23 11:00:00 25.5 8 Norte 18 Norte 0 -- -- 52
2017-07-23 10:00:00 22.1 12 Norte 21 Norte 0 -- -- 62
2017-07-23 09:00:00 19.7 8 Norte 20 Nordeste 0 -- -- 70
2017-07-23 08:00:00 17.6 9 Norte 20 Nordeste 0 -- -- 78
2017-07-23 07:00:00 18.1 9 Norte 22 Nordeste 0 -- -- 76
2017-07-23 06:00:00 19 10 Norte 24 Nordeste 0 -- -- 73
2017-07-23 05:00:00 20.1 13 Norte 28 Norte 0 -- -- 70
2017-07-23 04:00:00 21.2 14 Norte 28 Norte 0 -- -- 66
2017-07-23 03:00:00 22 11 Norte 24 Norte 0 -- -- 63
2017-07-23 02:00:00 22.9 10 Norte 21 Norte 0 -- -- 61
2017-07-23 01:00:00 23.8 9 Norte 23 Norte 0 -- -- 60
2017-07-23 00:00:00 24.3 11 Norte 24 Norte 0 -- -- 59
2017-07-22 23:00:00 22.3 5 Noroeste 21 Noroeste 0 -- -- 68
2017-07-22 22:00:00 23.2 9 Noroeste 18 Oeste 0 -- -- 73
2017-07-22 21:00:00 24.2 12 Oeste 24 Oeste 0 -- -- 70
2017-07-22 20:00:00 24.5 17 Oeste 27 Oeste 0 -- -- 71
2017-07-22 19:00:00 25.1 17 Oeste 33 Oeste 0 -- -- 65
2017-07-22 18:00:00 24.9 21 Oeste 30 Oeste 0 -- -- 66
2017-07-22 17:00:00 24.8 18 Oeste 30 Oeste 0 -- -- 63
2017-07-22 16:00:00 25.1 21 Oeste 32 Oeste 0 -- -- 61
2017-07-22 15:00:00 25.3 24 Oeste 37 Oeste 0 -- -- 58
2017-07-22 14:00:00 27.3 18 Oeste 26 Oeste 0 -- -- 48
2017-07-22 13:00:00 27.7 10 Noroeste 21 Noroeste 0 -- -- 43
2017-07-22 12:00:00 25.6 6 Nordeste 23 Norte 0 -- -- 49
2017-07-22 11:00:00 22.9 10 Nordeste 24 Norte 0 -- -- 58
2017-07-22 10:00:00 20.5 12 Nordeste 26 Nordeste 0 -- -- 67
2017-07-22 09:00:00 18 14 Norte 28 Norte 0 -- -- 76
2017-07-22 08:00:00 16.1 8 Norte 20 Nordeste 0 -- -- 83
2017-07-22 07:00:00 16.2 8 Nordeste 21 Norte 0 -- -- 80
2017-07-22 06:00:00 17 8 Nordeste 23 Nordeste 0 -- -- 74
2017-07-22 05:00:00 18 11 Norte 22 Norte 0 -- -- 68
2017-07-22 04:00:00 18.9 10 Nordeste 27 Norte 0 -- -- 64
2017-07-22 03:00:00 20.1 13 Norte 26 Nordeste 0 -- -- 60
2017-07-22 02:00:00 21.2 12 Norte 32 Norte 0 -- -- 57
2017-07-22 01:00:00 22 12 Norte 26 Norte 0 -- -- 56
2017-07-22 00:00:00 18.3 7 Norte 17 Norte 0 -- -- 84
2017-07-21 23:00:00 19.8 0 Calma 5 Sur 0 -- -- 87
2017-07-21 22:00:00 22.2 4 Sudoeste 14 Oeste 0 -- -- 84
2017-07-21 21:00:00 23.6 9 Oeste 22 Noroeste 0 -- -- 73
2017-07-21 20:00:00 23.7 14 Oeste 28 Oeste 0 -- -- 71
2017-07-21 19:00:00 23.7 17 Oeste 31 Oeste 0 -- -- 63
2017-07-21 18:00:00 23.5 20 Oeste 33 Oeste 0 -- -- 64
2017-07-21 17:00:00 23.6 19 Oeste 33 Oeste 0 -- -- 62
2017-07-21 16:00:00 23.7 19 Oeste 34 Oeste 0 -- -- 62
2017-07-21 15:00:00 23.8 20 Oeste 40 Oeste 0 -- -- 60
2017-07-21 14:00:00 23.4 17 Oeste 29 Sudoeste 0 -- -- 57
2017-07-21 13:00:00 24.9 13 Oeste 25 Noroeste 0 -- -- 51
2017-07-21 12:00:00 23.3 12 Noroeste 23 Noroeste 0 -- -- 53
2017-07-21 11:00:00 21.1 12 Noroeste 28 Norte 0 -- -- 60
2017-07-21 10:00:00 19 13 Norte 31 Norte 0 -- -- 66
2017-07-21 09:00:00 17 9 Norte 22 Norte 0 -- -- 73
2017-07-21 08:00:00 14.7 6 Norte 17 Norte 0 -- -- 81
2017-07-21 07:00:00 15 8 Norte 20 Norte 0 -- -- 76
2017-07-21 06:00:00 15.7 10 Norte 26 Norte 0 -- -- 71
2017-07-21 05:00:00 16.4 11 Norte 28 Norte 0 -- -- 67
2017-07-21 04:00:00 17.4 15 Norte 37 Nordeste 0 -- -- 63
2017-07-21 03:00:00 18.3 14 Norte 32 Norte 0 -- -- 59
2017-07-21 02:00:00 19.5 16 Norte 33 Norte 0 -- -- 55
2017-07-21 01:00:00 20.7 15 Norte 36 Norte 0 -- -- 52
2017-07-21 00:00:00 21.9 15 Norte 36 Norte 0 -- -- 50
2017-07-20 23:00:00 23.6 17 Norte 34 Norte 0 -- -- 46
2017-07-20 22:00:00 23.1 10 Norte 22 Noroeste 0 -- -- 60
2017-07-20 21:00:00 23.9 12 Oeste 22 Oeste 0 -- -- 77
2017-07-20 20:00:00 24.7 15 Oeste 30 Noroeste 0 -- -- 72
2017-07-20 19:00:00 25 20 Oeste 34 Oeste 0 -- -- 68
2017-07-20 18:00:00 25 20 Oeste 39 Oeste 0 -- -- 66
2017-07-20 17:00:00 25.1 23 Oeste 39 Oeste 0 -- -- 62
2017-07-20 16:00:00 25.4 21 Oeste 39 Oeste 0 -- -- 62
2017-07-20 15:00:00 27.1 23 Oeste 36 Oeste 0 -- -- 53
2017-07-20 14:00:00 28 13 Noroeste 28 Norte 0 -- -- 39
2017-07-20 13:00:00 26.4 13 Noroeste 27 Norte 0 -- -- 45
2017-07-20 12:00:00 24.6 12 Norte 26 Nordeste 0 -- -- 51
2017-07-20 11:00:00 22.8 13 Norte 28 Noroeste 0 -- -- 58
2017-07-20 10:00:00 20.9 13 Nordeste 33 Nordeste 0 -- -- 63
2017-07-20 09:00:00 19 14 Norte 30 Norte 0 -- -- 70
2017-07-20 08:00:00 17.4 10 Norte 23 Nordeste 0 -- -- 75
2017-07-20 07:00:00 17.9 11 Norte 27 Norte 0 -- -- 77
2017-07-20 06:00:00 18.8 14 Norte 25 Norte 0 -- -- 76
2017-07-20 05:00:00 19.6 12 Norte 24 Norte 0 -- -- 75
2017-07-20 04:00:00 20.1 12 Norte 26 Norte 0 -- -- 75
2017-07-20 03:00:00 20.7 12 Norte 28 Norte 0 -- -- 73
2017-07-20 02:00:00 21.4 12 Norte 30 Norte 0 -- -- 70
2017-07-20 01:00:00 22.4 13 Norte 38 Norte 0 -- -- 67
2017-07-20 00:00:00 23.7 14 Norte 30 Norte 0 -- -- 60
2017-07-19 23:00:00 25.3 13 Norte 27 Norte 0 -- -- 54
2017-07-19 22:00:00 23.9 6 Norte 25 Noroeste 0 -- -- 80
2017-07-19 21:00:00 25.6 14 Noroeste 30 Oeste 0 -- -- 73
2017-07-19 20:00:00 26.5 18 Oeste 32 Oeste 0 -- -- 69
2017-07-19 19:00:00 26.2 22 Oeste 33 Oeste 0 -- -- 72
2017-07-19 18:00:00 26.2 22 Oeste 34 Oeste 0 -- -- 69
2017-07-19 17:00:00 25.6 22 Oeste 35 Oeste 0 -- -- 68
2017-07-19 16:00:00 25.6 23 Oeste 33 Oeste 0 -- -- 70
2017-07-19 15:00:00 25.8 22 Oeste 33 Oeste 0 -- -- 64
2017-07-19 14:00:00 27.2 18 Oeste 29 Oeste 0 -- -- 57
2017-07-19 13:00:00 29.2 10 Noroeste 23 Noroeste 0 -- -- 44
2017-07-19 12:00:00 27.3 11 Norte 26 Noroeste 0 -- -- 49
2017-07-19 11:00:00 25.2 9 Norte 24 Noroeste 0 -- -- 57
2017-07-19 10:00:00 23.3 12 Norte 26 Norte 0 -- -- 65
2017-07-19 09:00:00 21.2 8 Norte 23 Norte 0 -- -- 76
2017-07-19 08:00:00 19.2 11 Norte 29 Norte 0 -- -- 85
2017-07-19 07:00:00 18.6 14 Norte 31 Norte 0 -- -- 89
2017-07-19 06:00:00 18.6 14 Norte 29 Norte 0 -- -- 88
2017-07-19 05:00:00 19.2 15 Norte 32 Norte 0 -- -- 86
2017-07-19 04:00:00 19.9 13 Norte 28 Norte 0 -- -- 83
2017-07-19 03:00:00 20.8 11 Norte 28 Norte 0 -- -- 79
2017-07-19 02:00:00 22.1 12 Norte 27 Norte 0 -- -- 74
2017-07-19 01:00:00 23.4 10 Norte 30 Norte 0 -- -- 69
2017-07-19 00:00:00 24.6 12 Norte 27 Noroeste 0 -- -- 63